createdAt,value
2018-05-09T00:02:03.442Z,15.20
2018-05-09T00:04:31.557Z,15.20
2018-05-09T00:06:59.688Z,15.40
2018-05-09T00:09:27.815Z,15.40
2018-05-09T00:11:55.967Z,15.30
2018-05-09T00:14:24.071Z,15.30
2018-05-09T00:16:52.960Z,15.20
2018-05-09T00:19:21.985Z,15.10
2018-05-09T00:21:50.494Z,15.10
2018-05-09T00:24:18.621Z,15.20
2018-05-09T00:26:47.513Z,15.10
2018-05-09T00:29:15.654Z,15.00
2018-05-09T00:31:43.769Z,15.00
2018-05-09T00:34:11.947Z,15.00
2018-05-09T00:36:40.796Z,15.00
2018-05-09T00:39:08.935Z,15.00
2018-05-09T00:41:37.064Z,14.90
2018-05-09T00:44:05.242Z,14.90
2018-05-09T00:46:33.368Z,14.70
2018-05-09T00:49:02.269Z,14.70
2018-05-09T00:51:31.157Z,14.50
2018-05-09T00:54:11.120Z,14.50
2018-05-09T00:56:40.017Z,14.20
2018-05-09T00:59:08.946Z,14.00
2018-05-09T01:01:37.092Z,14.00
2018-05-09T01:04:05.245Z,13.30
2018-05-09T01:06:34.158Z,13.70
2018-05-09T01:09:02.336Z,13.70
2018-05-09T01:11:30.472Z,13.90
2018-05-09T01:13:59.360Z,14.30
2018-05-09T01:16:28.261Z,14.30
2018-05-09T01:18:57.263Z,14.20
2018-05-09T01:21:25.392Z,14.10
2018-05-09T01:23:53.522Z,14.20
2018-05-09T01:26:21.664Z,14.10
2018-05-09T01:28:50.551Z,14.10
2018-05-09T01:31:19.538Z,14.00
2018-05-09T01:33:48.411Z,13.90
2018-05-09T01:36:16.553Z,13.90
2018-05-09T01:38:44.672Z,13.80
2018-05-09T01:41:13.586Z,13.60
2018-05-09T01:43:41.708Z,13.50
2018-05-09T01:46:09.823Z,13.60
2018-05-09T01:48:37.974Z,13.40
2018-05-09T01:51:06.857Z,13.00
2018-05-09T01:53:35.760Z,13.40
2018-05-09T01:56:04.640Z,13.60
2018-05-09T01:58:33.552Z,13.50
2018-05-09T02:01:01.674Z,13.50
2018-05-09T02:03:29.822Z,13.60
2018-05-09T02:05:57.963Z,13.60
2018-05-09T02:08:26.852Z,13.60
2018-05-09T02:10:54.980Z,13.60
2018-05-09T02:13:23.109Z,13.50
2018-05-09T02:15:51.232Z,13.60
2018-05-09T02:18:19.378Z,13.50
2018-05-09T02:20:47.495Z,13.60
2018-05-09T02:23:16.396Z,13.40
2018-05-09T02:25:44.512Z,13.40
2018-05-09T02:28:12.672Z,13.40
2018-05-09T02:30:40.783Z,13.40
2018-05-09T02:33:08.930Z,13.70
2018-05-09T02:35:37.040Z,13.90
2018-05-09T02:38:05.155Z,13.60
2018-05-09T02:40:33.376Z,13.70
2018-05-09T02:43:01.492Z,13.80
2018-05-09T02:45:29.647Z,13.80
2018-05-09T02:47:57.779Z,14.00
2018-05-09T02:50:28.831Z,13.40
2018-05-09T02:52:57.875Z,13.40
2018-05-09T02:55:26.003Z,13.30
2018-05-09T02:57:54.909Z,13.70
2018-05-09T03:00:23.172Z,13.70
2018-05-09T03:02:52.091Z,13.10
2018-05-09T03:05:20.232Z,13.10
2018-05-09T03:07:48.365Z,13.00
2018-05-09T03:10:16.615Z,12.70
2018-05-09T03:12:44.736Z,13.00
2018-05-09T03:15:13.642Z,12.90
2018-05-09T03:17:41.776Z,12.90
2018-05-09T03:20:09.916Z,13.00
2018-05-09T03:22:38.036Z,13.00
2018-05-09T03:25:06.961Z,13.00
2018-05-09T03:27:35.089Z,13.00
2018-05-09T03:30:03.215Z,12.90
2018-05-09T03:32:31.382Z,12.90
2018-05-09T03:34:59.748Z,13.10
2018-05-09T03:37:27.908Z,13.30
2018-05-09T03:39:56.019Z,13.60
2018-05-09T03:42:24.152Z,13.80
2018-05-09T03:44:53.036Z,13.80
2018-05-09T03:47:21.942Z,13.80
2018-05-09T03:49:50.117Z,13.70
2018-05-09T03:52:18.358Z,13.70
2018-05-09T03:54:46.475Z,13.60
2018-05-09T03:57:14.621Z,13.80
2018-05-09T03:59:43.504Z,13.80
2018-05-09T04:02:23.608Z,13.80
2018-05-09T04:05:03.356Z,13.70
2018-05-09T04:07:43.264Z,13.80
2018-05-09T04:10:11.392Z,13.70
2018-05-09T04:12:39.639Z,13.40
2018-05-09T04:15:07.785Z,13.30
2018-05-09T04:17:35.935Z,13.60
2018-05-09T04:20:04.060Z,13.80
2018-05-09T04:22:32.291Z,14.00
2018-05-09T04:25:00.456Z,14.10
2018-05-09T04:27:28.844Z,14.20
2018-05-09T04:29:56.992Z,14.20
2018-05-09T04:32:25.883Z,14.40
2018-05-09T04:34:54.795Z,14.30
2018-05-09T04:37:22.949Z,14.20
2018-05-09T04:39:51.849Z,14.30
2018-05-09T04:42:19.989Z,14.30
2018-05-09T04:44:48.136Z,14.30
2018-05-09T04:47:16.268Z,14.20
2018-05-09T04:49:44.416Z,13.90
2018-05-09T04:52:13.308Z,13.90
2018-05-09T04:54:42.221Z,14.00
2018-05-09T04:57:10.356Z,14.00
2018-05-09T04:59:38.493Z,14.10
2018-05-09T05:02:06.629Z,14.20
2018-05-09T05:04:34.792Z,14.40
2018-05-09T05:07:03.720Z,14.50
2018-05-09T05:09:31.835Z,14.50
2018-05-09T05:12:00.736Z,14.90
2018-05-09T05:14:28.896Z,15.00
2018-05-09T05:16:57.917Z,15.20
2018-05-09T05:19:26.045Z,15.20
2018-05-09T05:21:54.184Z,15.40
2018-05-09T05:24:22.309Z,15.60
2018-05-09T05:26:50.465Z,16.00
2018-05-09T05:29:18.590Z,15.90
2018-05-09T05:31:46.741Z,16.30
2018-05-09T05:34:14.877Z,16.50
2018-05-09T05:36:43.028Z,16.70
2018-05-09T05:39:11.164Z,16.70
2018-05-09T05:41:39.325Z,16.90
2018-05-09T05:44:08.209Z,16.90
2018-05-09T05:46:36.370Z,16.90
2018-05-09T05:49:04.491Z,17.00
2018-05-09T05:51:32.781Z,16.90
2018-05-09T05:54:00.929Z,17.10
2018-05-09T05:56:29.069Z,17.30
2018-05-09T05:58:57.959Z,17.40
2018-05-09T06:01:26.293Z,17.30
2018-05-09T06:03:54.420Z,17.10
2018-05-09T06:06:22.715Z,17.10
2018-05-09T06:08:50.873Z,16.50
2018-05-09T06:11:19.043Z,17.20
2018-05-09T06:13:47.172Z,17.80
2018-05-09T06:16:15.307Z,18.10
2018-05-09T06:18:43.460Z,18.40
2018-05-09T06:21:11.585Z,18.60
2018-05-09T06:23:39.729Z,18.60
2018-05-09T06:26:07.860Z,18.70
2018-05-09T06:28:36.012Z,18.80
2018-05-09T06:31:04.150Z,19.00
2018-05-09T06:33:32.349Z,18.90
2018-05-09T06:36:00.488Z,18.90
2018-05-09T06:38:28.837Z,19.30
2018-05-09T06:40:56.968Z,19.40
2018-05-09T06:43:25.893Z,20.00
2018-05-09T06:45:54.016Z,20.00
2018-05-09T06:48:22.164Z,20.20
2018-05-09T06:50:50.627Z,20.40
2018-05-09T06:53:18.772Z,20.50
2018-05-09T06:55:46.971Z,20.50
2018-05-09T06:58:15.119Z,20.70
2018-05-09T07:00:43.260Z,20.80
2018-05-09T07:03:11.388Z,21.00
2018-05-09T07:05:39.533Z,21.20
2018-05-09T07:08:07.920Z,21.20
2018-05-09T07:10:36.073Z,20.40
2018-05-09T07:13:04.960Z,21.30
2018-05-09T07:15:34.202Z,21.60
2018-05-09T07:18:02.328Z,21.60
2018-05-09T07:20:31.239Z,21.20
2018-05-09T07:22:59.368Z,21.20
2018-05-09T07:25:27.509Z,21.20
2018-05-09T07:27:55.649Z,20.10
2018-05-09T07:30:23.786Z,20.90
2018-05-09T07:32:51.910Z,21.70
2018-05-09T07:35:20.055Z,22.00
2018-05-09T07:37:48.176Z,22.20
2018-05-09T07:40:16.318Z,22.70
2018-05-09T07:42:44.439Z,22.90
2018-05-09T07:45:12.588Z,23.20
2018-05-09T07:47:40.800Z,23.20
2018-05-09T07:50:08.876Z,23.00
2018-05-09T07:52:37.775Z,22.70
2018-05-09T07:55:05.929Z,22.70
2018-05-09T07:57:34.823Z,22.50
2018-05-09T08:00:03.723Z,22.90
2018-05-09T08:02:31.878Z,22.90
2018-05-09T08:05:00.773Z,23.70
2018-05-09T08:07:29.689Z,23.50
2018-05-09T08:09:57.824Z,23.50
2018-05-09T08:12:26.746Z,23.60
2018-05-09T08:14:54.872Z,23.60
2018-05-09T08:17:23.022Z,24.40
2018-05-09T08:19:51.144Z,24.30
2018-05-09T08:22:19.288Z,23.50
2018-05-09T08:24:47.424Z,24.70
2018-05-09T08:27:15.572Z,25.30
2018-05-09T08:29:43.695Z,25.60
2018-05-09T08:32:11.849Z,25.50
2018-05-09T08:34:39.973Z,25.20
2018-05-09T08:37:08.117Z,25.20
2018-05-09T08:39:36.239Z,25.50
2018-05-09T08:42:04.418Z,25.80
2018-05-09T08:44:32.578Z,26.10
2018-05-09T08:47:00.759Z,25.10
2018-05-09T08:49:28.932Z,25.70
2018-05-09T08:51:57.125Z,26.30
2018-05-09T08:54:25.256Z,24.90
2018-05-09T08:56:53.488Z,23.90
2018-05-09T08:59:21.642Z,25.70
2018-05-09T09:01:49.856Z,26.30
2018-05-09T09:04:18.814Z,26.20
2018-05-09T09:06:46.886Z,26.20
2018-05-09T09:09:15.017Z,27.20
2018-05-09T09:11:43.132Z,27.20
2018-05-09T09:14:11.272Z,23.50
2018-05-09T09:16:39.416Z,24.60
2018-05-09T09:19:07.585Z,25.90
2018-05-09T09:21:35.708Z,26.70
2018-05-09T09:24:03.853Z,25.40
2018-05-09T09:26:31.976Z,26.10
2018-05-09T09:29:00.872Z,27.40
2018-05-09T09:31:29.760Z,26.80
2018-05-09T09:33:58.656Z,26.20
2018-05-09T09:36:26.792Z,26.20
2018-05-09T09:38:54.942Z,27.50
2018-05-09T09:41:23.869Z,28.30
2018-05-09T09:43:51.989Z,28.30
2018-05-09T09:46:20.104Z,27.70
2018-05-09T09:48:48.225Z,27.20
2018-05-09T09:51:16.365Z,27.30
2018-05-09T09:53:45.245Z,28.10
2018-05-09T09:56:14.162Z,26.80
2018-05-09T09:58:42.288Z,26.80
2018-05-09T10:01:10.437Z,25.90
2018-05-09T10:03:38.575Z,24.30
2018-05-09T10:06:06.716Z,23.60
2018-05-09T10:08:34.841Z,24.80
2018-05-09T10:11:02.975Z,26.50
2018-05-09T10:13:31.867Z,25.10
2018-05-09T10:16:00.839Z,26.80
2018-05-09T10:18:29.004Z,26.80
2018-05-09T10:20:58.643Z,28.40
2018-05-09T10:23:26.793Z,28.40
2018-05-09T10:25:55.098Z,28.30
2018-05-09T10:28:23.220Z,28.70
2018-05-09T10:30:51.360Z,28.10
2018-05-09T10:33:19.488Z,27.10
2018-05-09T10:35:48.376Z,26.20
2018-05-09T10:38:17.277Z,28.00
2018-05-09T10:40:46.160Z,28.50
2018-05-09T10:43:15.073Z,28.10
2018-05-09T10:45:43.226Z,28.10
2018-05-09T10:48:12.134Z,27.20
2018-05-09T10:50:40.251Z,27.20
2018-05-09T10:53:08.410Z,27.40
2018-05-09T10:55:36.615Z,26.90
2018-05-09T10:58:05.849Z,26.80
2018-05-09T11:00:33.964Z,26.80
2018-05-09T11:03:02.106Z,28.00
2018-05-09T11:05:30.485Z,28.70
2018-05-09T11:07:58.921Z,28.20
2018-05-09T11:10:27.116Z,27.80
2018-05-09T11:12:55.275Z,27.20
2018-05-09T11:15:24.166Z,27.50
2018-05-09T11:17:52.344Z,27.40
2018-05-09T11:20:20.479Z,28.20
2018-05-09T11:22:48.627Z,28.70
2018-05-09T11:25:16.764Z,29.40
2018-05-09T11:27:44.865Z,30.10
2018-05-09T11:30:13.004Z,30.60
2018-05-09T11:32:41.133Z,30.80
2018-05-09T11:35:09.280Z,30.70
2018-05-09T11:37:37.432Z,30.60
2018-05-09T11:40:05.589Z,30.30
2018-05-09T11:42:33.723Z,29.80
2018-05-09T11:45:01.856Z,29.00
2018-05-09T11:47:30.725Z,28.00
2018-05-09T11:49:58.865Z,27.40
2018-05-09T11:52:27.761Z,27.80
2018-05-09T11:54:56.662Z,27.20
2018-05-09T11:57:24.813Z,27.10
2018-05-09T11:59:53.728Z,26.60
2018-05-09T12:02:21.909Z,26.60
2018-05-09T12:04:50.007Z,26.20
2018-05-09T12:07:18.125Z,26.60
2018-05-09T12:09:47.072Z,28.60
2018-05-09T12:12:16.588Z,28.60
2018-05-09T12:14:44.822Z,28.90
2018-05-09T12:17:12.939Z,28.60
2018-05-09T12:19:41.153Z,28.60
2018-05-09T12:22:10.064Z,28.30
2018-05-09T12:24:38.243Z,28.30
2018-05-09T12:27:07.100Z,28.80
2018-05-09T12:29:35.217Z,28.80
2018-05-09T12:32:03.344Z,28.80
2018-05-09T12:34:31.479Z,28.40
2018-05-09T12:36:59.616Z,28.90
2018-05-09T12:39:27.757Z,29.20
2018-05-09T12:41:55.898Z,28.60
2018-05-09T12:44:24.021Z,28.30
2018-05-09T12:46:52.156Z,28.10
2018-05-09T12:49:21.052Z,29.50
2018-05-09T12:51:49.251Z,29.50
2018-05-09T12:54:17.402Z,29.60
2018-05-09T12:56:45.460Z,29.00
2018-05-09T12:59:14.341Z,29.90
2018-05-09T13:01:43.254Z,30.00
2018-05-09T13:04:11.376Z,29.90
2018-05-09T13:06:39.516Z,30.00
2018-05-09T13:09:07.648Z,29.70
2018-05-09T13:11:36.907Z,28.80
2018-05-09T13:14:05.032Z,28.80
2018-05-09T13:16:33.185Z,28.10
2018-05-09T13:19:01.296Z,27.20
2018-05-09T13:21:29.466Z,26.80
2018-05-09T13:23:57.610Z,26.50
2018-05-09T13:26:26.501Z,25.50
2018-05-09T13:28:55.017Z,25.40
2018-05-09T13:31:23.132Z,25.00
2018-05-09T13:33:52.052Z,25.20
2018-05-09T13:36:21.820Z,25.50
2018-05-09T13:38:50.072Z,25.50
2018-05-09T13:41:18.185Z,25.60
2018-05-09T13:43:47.096Z,25.80
2018-05-09T13:46:15.281Z,25.80
2018-05-09T13:48:44.145Z,26.20
2018-05-09T13:51:12.429Z,26.10
2018-05-09T13:53:40.573Z,26.50
2018-05-09T13:56:09.566Z,26.20
2018-05-09T13:58:37.621Z,26.20
2018-05-09T14:01:05.752Z,25.60
2018-05-09T14:03:33.868Z,25.50
2018-05-09T14:06:02.013Z,25.60
2018-05-09T14:08:30.138Z,25.80
2018-05-09T14:10:58.276Z,25.20
2018-05-09T14:13:26.400Z,25.00
2018-05-09T14:15:54.625Z,24.90
2018-05-09T14:18:22.693Z,24.50
2018-05-09T14:20:50.827Z,24.70
2018-05-09T14:23:19.002Z,24.60
2018-05-09T14:25:47.132Z,24.50
2018-05-09T14:28:16.018Z,25.30
2018-05-09T14:30:44.917Z,25.60
2018-05-09T14:33:13.060Z,25.60
2018-05-09T14:35:41.206Z,25.00
2018-05-09T14:38:09.340Z,24.80
2018-05-09T14:40:37.605Z,24.90
2018-05-09T14:43:05.647Z,24.80
2018-05-09T14:45:33.789Z,24.70
2018-05-09T14:48:01.920Z,25.00
2018-05-09T14:50:30.083Z,25.20
2018-05-09T14:52:58.204Z,25.30
2018-05-09T14:55:26.347Z,25.20
2018-05-09T14:57:54.471Z,25.20
2018-05-09T15:00:22.703Z,24.80
2018-05-09T15:02:50.739Z,25.00
2018-05-09T15:05:18.889Z,24.90
2018-05-09T15:07:47.024Z,24.70
2018-05-09T15:10:15.154Z,24.80
2018-05-09T15:12:44.049Z,24.60
2018-05-09T15:15:12.170Z,24.50
2018-05-09T15:17:40.324Z,24.40
2018-05-09T15:20:08.441Z,24.20
2018-05-09T15:22:36.660Z,23.80
2018-05-09T15:25:04.722Z,23.70
2018-05-09T15:27:32.863Z,23.50
2018-05-09T15:30:01.775Z,23.50
2018-05-09T15:32:30.647Z,23.50
2018-05-09T15:34:59.532Z,23.70
2018-05-09T15:37:28.441Z,23.80
2018-05-09T15:39:56.604Z,23.70
2018-05-09T15:42:24.741Z,24.10
2018-05-09T15:44:52.879Z,24.20
2018-05-09T15:47:21.184Z,24.20
2018-05-09T15:49:49.306Z,24.30
2018-05-09T15:52:17.437Z,23.90
2018-05-09T15:54:45.568Z,23.80
2018-05-09T15:57:13.687Z,23.90
2018-05-09T15:59:42.593Z,23.90
2018-05-09T16:02:10.714Z,23.80
2018-05-09T16:04:38.860Z,23.80
2018-05-09T16:07:06.987Z,23.70
2018-05-09T16:09:35.895Z,23.30
2018-05-09T16:12:04.780Z,23.40
2018-05-09T16:14:33.677Z,23.40
2018-05-09T16:17:01.804Z,23.30
2018-05-09T16:19:29.960Z,23.30
2018-05-09T16:21:58.084Z,23.40
2018-05-09T16:24:27.000Z,23.30
2018-05-09T16:26:55.125Z,23.30
2018-05-09T16:29:23.256Z,23.20
2018-05-09T16:31:51.381Z,23.20
2018-05-09T16:34:20.288Z,23.30
2018-05-09T16:36:48.400Z,23.30
2018-05-09T16:39:16.539Z,23.30
2018-05-09T16:41:44.672Z,23.30
2018-05-09T16:44:12.812Z,23.10
2018-05-09T16:46:40.939Z,23.20
2018-05-09T16:49:09.827Z,23.10
2018-05-09T16:51:38.727Z,23.10
2018-05-09T16:54:06.847Z,23.10
2018-05-09T16:56:34.988Z,23.20
2018-05-09T16:59:03.115Z,23.10
2018-05-09T17:01:32.086Z,23.30
2018-05-09T17:04:00.155Z,23.30
2018-05-09T17:06:28.296Z,23.20
2018-05-09T17:08:56.411Z,23.00
2018-05-09T17:11:24.549Z,22.80
2018-05-09T17:13:52.668Z,22.80
2018-05-09T17:16:21.579Z,22.70
2018-05-09T17:18:49.755Z,22.70
2018-05-09T17:21:34.244Z,22.70
2018-05-09T17:24:02.361Z,22.70
2018-05-09T17:26:30.501Z,22.60
2018-05-09T17:28:58.620Z,22.60
2018-05-09T17:31:27.820Z,22.60
2018-05-09T17:33:55.944Z,22.60
2018-05-09T17:36:24.060Z,22.60
2018-05-09T17:38:52.971Z,22.40
2018-05-09T17:41:21.091Z,22.40
2018-05-09T17:43:49.992Z,22.20
2018-05-09T17:46:18.112Z,22.20
2018-05-09T17:48:46.256Z,22.20
2018-05-09T17:51:14.376Z,22.20
2018-05-09T17:53:42.521Z,22.10
2018-05-09T17:56:10.656Z,22.10
2018-05-09T17:58:38.842Z,22.10
2018-05-09T18:01:07.093Z,22.00
2018-05-09T18:03:35.492Z,22.00
2018-05-09T18:06:03.644Z,22.00
2018-05-09T18:08:31.775Z,21.90
2018-05-09T18:10:59.897Z,21.80
2018-05-09T18:13:28.042Z,21.80
2018-05-09T18:15:56.945Z,21.70
2018-05-09T18:18:25.848Z,21.50
2018-05-09T18:20:53.989Z,21.50
2018-05-09T18:23:22.138Z,21.50
2018-05-09T18:25:50.278Z,21.50
2018-05-09T18:28:18.394Z,21.30
2018-05-09T18:30:46.535Z,21.20
2018-05-09T18:33:14.661Z,21.00
2018-05-09T18:35:43.944Z,21.00
2018-05-09T18:38:12.051Z,21.00
2018-05-09T18:40:40.204Z,21.00
2018-05-09T18:43:09.099Z,20.70
2018-05-09T18:45:37.236Z,20.70
2018-05-09T18:48:05.361Z,20.40
2018-05-09T18:50:33.624Z,20.30
2018-05-09T18:53:01.742Z,20.40
2018-05-09T18:55:29.892Z,20.30
2018-05-09T18:57:58.012Z,20.30
2018-05-09T19:00:26.920Z,20.10
2018-05-09T19:02:55.057Z,20.10
2018-05-09T19:05:23.264Z,20.10
2018-05-09T19:07:51.412Z,20.10
2018-05-09T19:10:20.416Z,19.80
2018-05-09T19:12:49.336Z,19.90
2018-05-09T19:15:17.484Z,19.80
2018-05-09T19:17:45.613Z,19.80
2018-05-09T19:20:15.274Z,19.70
2018-05-09T19:22:43.420Z,19.80
2018-05-09T19:25:12.367Z,19.70
2018-05-09T19:27:40.501Z,19.60
2018-05-09T19:30:08.766Z,19.60
2018-05-09T19:32:37.665Z,19.50
2018-05-09T19:35:05.784Z,19.40
2018-05-09T19:37:33.922Z,19.50
2018-05-09T19:40:02.093Z,19.40
2018-05-09T19:42:30.259Z,19.40
2018-05-09T19:44:58.381Z,19.40
2018-05-09T19:47:26.530Z,19.40
2018-05-09T19:49:54.656Z,19.40
2018-05-09T19:52:23.579Z,19.20
2018-05-09T19:54:51.697Z,19.20
2018-05-09T19:57:19.848Z,19.20
2018-05-09T19:59:47.989Z,19.20
2018-05-09T20:02:16.149Z,19.10
2018-05-09T20:04:44.296Z,19.00
2018-05-09T20:07:13.272Z,19.10
2018-05-09T20:09:41.336Z,19.10
2018-05-09T20:12:09.548Z,19.00
2018-05-09T20:14:37.670Z,19.00
2018-05-09T20:17:05.815Z,18.70
2018-05-09T20:19:33.954Z,18.70
2018-05-09T20:22:02.235Z,18.40
2018-05-09T20:24:30.425Z,18.60
2018-05-09T20:26:58.548Z,18.50
2018-05-09T20:29:26.692Z,18.60
2018-05-09T20:32:06.688Z,18.50
2018-05-09T20:34:34.815Z,18.40
2018-05-09T20:37:03.024Z,18.30
2018-05-09T20:39:31.272Z,18.40
2018-05-09T20:41:59.372Z,18.40
2018-05-09T20:44:27.494Z,18.40
2018-05-09T20:46:55.612Z,18.30
2018-05-09T20:49:24.189Z,18.30
2018-05-09T20:51:53.073Z,18.20
2018-05-09T20:54:21.968Z,18.20
2018-05-09T20:56:50.860Z,18.30
2018-05-09T20:59:19.760Z,18.20
2018-05-09T21:01:48.587Z,18.10
2018-05-09T21:04:16.749Z,17.90
2018-05-09T21:06:44.851Z,17.60
2018-05-09T21:09:13.125Z,17.40
2018-05-09T21:14:36.129Z,16.60
2018-05-09T21:17:04.297Z,16.60
2018-05-09T21:19:32.369Z,16.50
2018-05-09T21:22:01.596Z,16.60
2018-05-09T21:24:29.734Z,16.50
2018-05-09T21:26:58.617Z,16.70
2018-05-09T21:29:26.752Z,16.70
2018-05-09T21:31:54.897Z,16.90
2018-05-09T21:34:23.021Z,16.90
2018-05-09T21:36:51.164Z,17.10
2018-05-09T21:39:19.300Z,17.30
2018-05-09T21:41:47.446Z,17.10
2018-05-09T21:44:16.336Z,17.20
2018-05-09T21:46:44.564Z,17.20
2018-05-09T21:49:12.708Z,17.20
2018-05-09T21:51:40.847Z,17.10
2018-05-09T21:54:09.726Z,17.00
2018-05-09T21:56:37.968Z,17.00
2018-05-09T21:59:06.202Z,17.00
2018-05-09T22:01:34.349Z,17.10
2018-05-09T22:04:02.588Z,17.10
2018-05-09T22:06:30.725Z,17.10
2018-05-09T22:08:58.859Z,16.90
2018-05-09T22:11:26.997Z,16.90
2018-05-09T22:13:55.127Z,16.60
2018-05-09T22:16:23.412Z,16.50
2018-05-09T22:18:51.592Z,16.20
2018-05-09T22:21:21.274Z,16.10
2018-05-09T22:23:50.168Z,16.10
2018-05-09T22:26:19.053Z,15.70
2018-05-09T22:28:47.219Z,15.70
2018-05-09T22:31:16.110Z,15.90
2018-05-09T22:33:44.248Z,15.90
2018-05-09T22:36:12.475Z,16.00
2018-05-09T22:38:40.753Z,16.00
2018-05-09T22:41:08.877Z,16.10
2018-05-09T22:43:37.099Z,16.00
2018-05-09T22:46:05.222Z,15.80
2018-05-09T22:48:33.355Z,15.90
2018-05-09T22:51:01.474Z,15.90
2018-05-09T22:53:29.614Z,15.90
2018-05-09T22:55:57.739Z,15.80
2018-05-09T22:58:26.649Z,15.70
2018-05-09T23:00:54.780Z,15.70
2018-05-09T23:03:22.925Z,15.40
2018-05-09T23:05:51.048Z,14.90
2018-05-09T23:08:19.186Z,15.00
2018-05-09T23:10:47.318Z,15.10
2018-05-09T23:13:15.470Z,15.30
2018-05-09T23:15:43.592Z,15.50
2018-05-09T23:18:11.699Z,15.60
2018-05-09T23:20:40.955Z,15.40
2018-05-09T23:23:09.085Z,15.30
2018-05-09T23:25:37.221Z,15.40
2018-05-09T23:28:05.703Z,15.50
2018-05-09T23:30:33.872Z,15.10
2018-05-09T23:33:02.007Z,14.90
2018-05-09T23:35:30.137Z,14.90
2018-05-09T23:37:59.036Z,14.80
2018-05-09T23:40:27.176Z,14.70
2018-05-09T23:42:55.310Z,14.80
2018-05-09T23:45:23.443Z,14.70
2018-05-09T23:47:51.574Z,14.50
2018-05-09T23:50:19.712Z,14.70
2018-05-09T23:52:47.840Z,14.80
2018-05-09T23:55:16.744Z,15.00
2018-05-09T23:57:45.624Z,14.90
